Time;durP1;ratioP1;P1;durP2;ratioP2;P2;SDS_P1;SDS_P2;PMS_P1;PMS_P2;Temp;Humidity;BMP_temperature;BMP_pressure;BME280_temperature;BME280_humidity;BME280_pressure;Samples;Min_cycle;Max_cycle;Signal;HPM_P1;HPM_P2
2022/04/22 00:00:46;;;;;;;13.27;7.63;;;;;;;9.65;89.24;96848.72;4985892;28;20054;-58
2022/04/22 00:03:12;;;;;;;9.88;6.40;;;;;;;9.21;89.33;96792.25;4985202;28;20094;-57
2022/04/22 00:05:39;;;;;;;14.65;7.07;;;;;;;9.40;89.89;96816.28;4985468;28;20050;-63
2022/04/22 00:08:06;;;;;;;10.90;7.43;;;;;;;9.99;90.92;96925.16;4984797;28;20520;-56
2022/04/22 00:10:33;;;;;;;12.35;7.25;;;;;;;9.97;91.22;96916.47;4984671;28;20050;-57
2022/04/22 00:13:00;;;;;;;11.02;6.90;;;;;;;9.87;92.75;96917.06;4984743;28;20137;-56
2022/04/22 00:15:27;;;;;;;8.05;5.82;;;;;;;9.96;92.46;96914.84;4983336;28;20046;-55
2022/04/22 00:17:54;;;;;;;10.07;6.72;;;;;;;10.10;91.58;96920.66;4983069;28;20540;-63
2022/04/22 00:20:20;;;;;;;12.43;6.85;;;;;;;10.09;92.27;96923.78;4984858;28;20085;-57
2022/04/22 00:22:47;;;;;;;11.00;7.03;;;;;;;10.17;92.11;96929.09;4984842;28;20061;-55
2022/04/22 00:25:14;;;;;;;12.15;7.00;;;;;;;10.19;91.98;96928.72;4984828;28;20050;-63
2022/04/22 00:27:41;;;;;;;14.15;7.65;;;;;;;9.42;93.21;96828.53;4984367;28;20061;-63
2022/04/22 00:30:11;;;;;;;13.05;6.80;;;;;;;10.10;94.46;96931.72;4984352;28;20050;-64
2022/04/22 00:32:38;;;;;;;10.52;6.82;;;;;;;10.13;94.78;96930.97;4983298;28;20074;-64
2022/04/22 00:35:05;;;;;;;13.82;6.88;;;;;;;10.10;94.44;96926.19;4984866;28;20069;-56
2022/04/22 00:37:32;;;;;;;10.93;6.90;;;;;;;10.11;95.46;96927.00;4984532;28;20046;-56
2022/04/22 00:39:59;;;;;;;12.27;7.22;;;;;;;10.06;96.52;96924.50;4979221;28;20051;-64
2022/04/22 00:42:28;;;;;;;13.52;7.35;;;;;;;9.99;97.20;96925.16;4964825;28;20095;-66
2022/04/22 00:44:56;;;;;;;11.75;7.75;;;;;;;10.08;96.24;96928.53;4965048;28;20114;-56
2022/04/22 00:47:23;;;;;;;11.13;6.70;;;;;;;9.85;97.40;96916.63;4963690;28;20066;-67
2022/04/22 00:49:51;;;;;;;11.60;6.60;;;;;;;9.45;98.98;96855.47;4963381;28;20646;-57
2022/04/22 00:52:19;;;;;;;8.27;6.90;;;;;;;9.88;98.10;96928.94;4963665;28;20058;-57
2022/04/22 00:54:47;;;;;;;12.18;7.03;;;;;;;9.80;97.75;96918.91;4966708;28;20464;-66
2022/04/22 00:57:16;;;;;;;9.95;6.85;;;;;;;9.24;97.21;96855.09;4969025;28;20058;-66
2022/04/22 00:59:43;;;;;;;11.43;6.90;;;;;;;9.51;98.53;96914.03;4968758;28;20603;-56
2022/04/22 01:02:10;;;;;;;9.73;7.40;;;;;;;9.31;100.00;96855.19;4969040;28;20055;-67
2022/04/22 01:10:09;;;;;;;11.02;7.35;;;;;;;9.48;100.00;96892.66;4968654;28;20055;-56
2022/04/22 01:12:35;;;;;;;13.60;8.10;;;;;;;8.96;100.00;96799.28;4968741;28;20437;-66
2022/04/22 01:15:03;;;;;;;13.40;8.68;;;;;;;8.77;100.00;96760.66;4968662;28;20046;-58
2022/04/22 01:17:29;;;;;;;13.73;8.68;;;;;;;9.51;100.00;96880.84;4968547;28;20481;-56
2022/04/22 01:19:57;;;;;;;16.88;8.70;;;;;;;9.56;100.00;96867.53;4968744;28;20097;-55
2022/04/22 01:22:24;;;;;;;15.40;9.00;;;;;;;9.61;100.00;96858.91;4968907;28;20062;-64
2022/04/22 01:24:57;;;;;;;17.65;10.60;;;;;;;9.61;100.00;96847.84;4967246;28;20061;-65
2022/04/22 01:27:27;;;;;;;16.40;9.65;;;;;;;9.51;100.00;96836.59;4967431;28;20514;-57
2022/04/22 01:29:54;;;;;;;19.15;10.02;;;;;;;9.30;100.00;96770.69;4968667;28;20055;-57
2022/04/22 01:32:20;;;;;;;19.05;11.70;;;;;;;9.19;100.00;96764.19;4968341;28;20440;-59
2022/04/22 01:34:47;;;;;;;45.28;23.70;;;;;;;9.00;100.00;96753.19;4968408;28;20054;-65
2022/04/22 01:37:14;;;;;;;14.52;8.95;;;;;;;9.41;100.00;96842.72;4968111;28;20046;-56
2022/04/22 01:39:40;;;;;;;36.85;15.23;;;;;;;9.30;100.00;96831.50;4970206;28;20059;-64
2022/04/22 01:42:07;;;;;;;29.77;13.93;;;;;;;9.15;100.00;96830.44;4987906;28;20057;-56
2022/04/22 01:44:35;;;;;;;31.48;15.77;;;;;;;8.56;100.00;96740.91;4987873;28;20109;-57
2022/04/22 01:47:04;;;;;;;34.08;16.63;;;;;;;9.18;100.00;96834.44;4987665;28;20050;-56
2022/04/22 01:49:31;;;;;;;23.83;11.52;;;;;;;8.70;100.00;96794.44;4986188;28;20058;-56
2022/04/22 01:51:58;;;;;;;20.92;11.10;;;;;;;9.13;100.00;96837.50;4985352;28;20065;-64
2022/04/22 01:54:24;;;;;;;24.80;12.00;;;;;;;8.63;100.00;96741.06;4987427;28;20090;-64
2022/04/22 01:56:51;;;;;;;20.85;9.90;;;;;;;9.12;100.00;96824.81;4987713;28;20062;-56
2022/04/22 01:59:18;;;;;;;17.85;10.57;;;;;;;9.12;100.00;96827.59;4987564;28;20061;-57
2022/04/22 02:01:44;;;;;;;21.30;9.50;;;;;;;9.20;100.00;96832.09;4987581;28;20429;-55
2022/04/22 02:04:11;;;;;;;20.92;12.25;;;;;;;9.00;100.00;96802.91;4986185;28;20065;-64
2022/04/22 02:06:38;;;;;;;16.75;10.30;;;;;;;9.34;100.00;96843.44;4984903;28;20077;-64
2022/04/22 02:09:04;;;;;;;15.18;9.75;;;;;;;8.82;100.00;96732.75;4987006;28;20061;-58
2022/04/22 02:11:32;;;;;;;14.45;9.85;;;;;;;9.48;100.00;96840.13;4987209;28;20473;-56
2022/04/22 02:13:58;;;;;;;14.35;9.20;;;;;;;9.47;100.00;96847.59;4987038;28;20057;-64
2022/04/22 02:16:25;;;;;;;11.52;7.82;;;;;;;9.14;100.00;96797.63;4987162;28;20057;-55
2022/04/22 02:18:52;;;;;;;15.52;9.02;;;;;;;9.52;100.00;96874.94;4986717;28;20055;-58
2022/04/22 02:21:18;;;;;;;14.18;8.95;;;;;;;9.42;100.00;96883.84;4986912;28;20050;-56
2022/04/22 02:23:45;;;;;;;13.82;9.15;;;;;;;9.32;100.00;96872.59;4987238;28;20065;-55
2022/04/22 02:26:12;;;;;;;15.05;9.23;;;;;;;8.83;100.00;96795.09;4987210;28;20054;-65
2022/04/22 02:28:39;;;;;;;12.05;8.48;;;;;;;9.25;100.00;96859.44;4987074;28;20073;-65
2022/04/22 02:31:07;;;;;;;15.27;8.88;;;;;;;9.30;100.00;96859.13;4986834;28;20050;-55
2022/04/22 02:33:36;;;;;;;12.43;9.05;;;;;;;9.44;100.00;96873.22;4985233;28;20054;-64
2022/04/22 02:36:03;;;;;;;14.57;8.90;;;;;;;9.32;100.00;96878.91;4986681;28;20053;-55
2022/04/22 02:38:31;;;;;;;15.77;9.38;;;;;;;9.24;100.00;96871.66;4974221;28;20558;-65
2022/04/22 02:46:29;;;;;;;15.00;10.18;;;;;;;9.15;100.00;96863.59;4967002;28;20073;-64
2022/04/22 02:48:58;;;;;;;18.48;10.35;;;;;;;9.10;100.00;96854.81;4965561;28;20168;-55
2022/04/22 02:51:25;;;;;;;22.40;11.52;;;;;;;9.09;100.00;96858.72;4966989;28;20057;-56
2022/04/22 02:53:53;;;;;;;14.82;10.65;;;;;;;8.52;100.00;96756.59;4967074;28;20050;-64
2022/04/22 02:56:21;;;;;;;28.40;17.48;;;;;;;8.88;100.00;96803.84;4967143;28;20506;-56
2022/04/22 02:58:48;;;;;;;23.33;17.00;;;;;;;9.16;100.00;96822.94;4966806;28;20413;-65
2022/04/22 03:01:16;;;;;;;25.08;16.63;;;;;;;9.25;100.00;96840.09;4966919;28;20051;-56
2022/04/22 03:03:44;;;;;;;23.88;14.55;;;;;;;6.91;100.00;96424.03;4966387;28;20533;-59
2022/04/22 03:06:11;;;;;;;17.33;11.43;;;;;;;9.17;100.00;96777.56;4966413;28;20058;-65
2022/04/22 03:08:37;;;;;;;16.63;10.75;;;;;;;9.61;100.00;96852.59;4966627;28;20054;-56
2022/04/22 03:11:04;;;;;;;22.30;13.25;;;;;;;9.63;100.00;96853.81;4966934;28;20058;-65
2022/04/22 03:13:31;;;;;;;17.50;11.18;;;;;;;9.42;100.00;96816.72;4966511;28;20249;-65
2022/04/22 03:16:02;;;;;;;22.20;13.57;;;;;;;9.68;100.00;96861.81;4964802;28;20074;-55
2022/04/22 03:18:29;;;;;;;18.02;11.88;;;;;;;9.73;100.00;96916.00;4966166;28;20057;-57
2022/04/22 03:20:57;;;;;;;36.38;22.88;;;;;;;9.75;100.00;96863.91;4966552;28;20062;-58
2022/04/22 03:23:24;;;;;;;56.17;30.77;;;;;;;9.55;100.00;96826.44;4966389;28;20533;-66
2022/04/22 03:25:50;;;;;;;48.30;27.98;;;;;;;9.55;100.00;96846.56;4965101;28;20066;-55
2022/04/22 03:28:17;;;;;;;25.70;16.75;;;;;;;9.68;100.00;96842.44;4965748;28;20621;-55
2022/04/22 03:30:44;;;;;;;22.42;15.02;;;;;;;9.67;100.00;96832.56;4966573;28;20075;-65
2022/04/22 03:33:11;;;;;;;18.90;12.38;;;;;;;9.64;100.00;96827.75;4966266;28;20058;-58
2022/04/22 03:35:37;;;;;;;21.67;12.35;;;;;;;9.65;100.00;96823.84;4966349;28;20117;-55
2022/04/22 03:38:04;;;;;;;16.67;12.07;;;;;;;9.64;100.00;96826.97;4966356;28;20441;-58
2022/04/22 03:40:30;;;;;;;16.88;10.55;;;;;;;9.59;100.00;96839.13;4974513;28;20055;-65
2022/04/22 03:42:57;;;;;;;17.58;11.18;;;;;;;9.55;100.00;96849.31;4985589;28;20050;-64
2022/04/22 03:45:24;;;;;;;18.40;11.52;;;;;;;9.59;100.00;96861.25;4985590;28;20055;-64
2022/04/22 03:47:51;;;;;;;18.85;12.85;;;;;;;9.53;100.00;96862.72;4985901;28;20062;-56
2022/04/22 03:50:17;;;;;;;24.05;13.38;;;;;;;9.66;100.00;96877.19;4985471;28;20073;-58
2022/04/22 03:52:44;;;;;;;21.23;12.48;;;;;;;9.58;100.00;96870.72;4985553;28;20105;-65
2022/04/22 03:55:11;;;;;;;28.75;14.35;;;;;;;9.38;100.00;96882.97;4985327;28;20065;-64
2022/04/22 04:00:23;;;;;;;26.17;13.68;;;;;;;9.34;100.00;96865.53;4985071;28;20054;-56
2022/04/22 04:02:49;;;;;;;20.45;12.40;;;;;;;9.02;100.00;96820.72;4984760;28;20054;-65
2022/04/22 04:05:16;;;;;;;21.10;12.82;;;;;;;9.12;100.00;96849.69;4984752;28;20153;-57
2022/04/22 04:07:43;;;;;;;17.90;11.57;;;;;;;9.29;100.00;96843.72;4985293;28;20488;-55
2022/04/22 04:15:59;;;;;;;23.58;12.75;;;;;;;9.65;100.00;96843.19;4984608;28;20052;-58
2022/04/22 04:18:31;;;;;;;24.48;13.00;;;;;;;9.42;100.00;96845.13;4984771;28;20054;-65
2022/04/22 04:23:44;;;;;;;32.25;15.00;;;;;;;9.54;100.00;96867.09;4985148;28;20046;-55
2022/04/22 04:26:12;;;;;;;95.50;33.28;;;;;;;9.64;100.00;96880.28;4984779;28;20576;-56
2022/04/22 04:28:39;;;;;;;113.22;40.72;;;;;;;9.69;100.00;96866.16;4984174;28;20054;-57
2022/04/22 04:31:06;;;;;;;76.43;39.95;;;;;;;9.67;100.00;96845.59;4984342;28;20050;-64
2022/04/22 04:33:34;;;;;;;68.07;34.92;;;;;;;9.45;100.00;96794.66;4984475;28;20054;-65
2022/04/22 04:36:01;;;;;;;40.63;23.10;;;;;;;9.84;100.00;96847.84;4982929;28;20784;-55
2022/04/22 04:38:28;;;;;;;30.48;20.05;;;;;;;9.95;100.00;96857.94;4984561;28;20058;-64
2022/04/22 04:40:55;;;;;;;62.47;34.13;;;;;;;10.10;100.00;96868.06;4971804;28;20054;-55
2022/04/22 04:43:22;;;;;;;47.92;26.17;;;;;;;10.11;100.00;96872.44;4965331;28;20054;-66
2022/04/22 04:45:50;;;;;;;47.35;27.25;;;;;;;10.03;100.00;96854.09;4964967;28;20053;-64
2022/04/22 04:48:18;;;;;;;44.33;24.17;;;;;;;10.21;100.00;96859.94;4963732;28;20137;-58
2022/04/22 04:50:46;;;;;;;40.72;23.42;;;;;;;10.24;100.00;96862.75;4964446;28;20054;-56
2022/04/22 04:53:13;;;;;;;36.83;23.35;;;;;;;9.94;100.00;96834.16;4963919;28;20533;-63
2022/04/22 04:55:40;;;;;;;44.85;27.08;;;;;;;10.28;100.00;96844.25;4964976;28;20062;-58
2022/04/22 04:58:07;;;;;;;33.60;20.52;;;;;;;10.26;100.00;96851.31;4963797;28;20046;-63
2022/04/22 05:00:34;;;;;;;46.45;24.00;;;;;;;10.21;100.00;96833.03;4964871;28;20055;-63
2022/04/22 05:03:01;;;;;;;55.63;29.30;;;;;;;10.41;100.00;96859.47;4965056;28;20054;-56
2022/04/22 05:05:29;;;;;;;43.60;27.40;;;;;;;10.20;100.00;96820.38;4963991;28;20521;-63
2022/04/22 05:08:00;;;;;;;36.65;23.08;;;;;;;10.59;100.00;96854.97;4964749;28;20047;-62
2022/04/22 05:10:31;;;;;;;34.17;22.35;;;;;;;10.52;100.00;96849.34;4964888;28;20050;-56
2022/04/22 05:12:59;;;;;;;28.13;18.77;;;;;;;10.17;100.00;96803.72;4965283;28;20055;-63
2022/04/22 05:15:27;;;;;;;35.97;23.13;;;;;;;10.46;100.00;96844.50;4964418;28;20051;-57
2022/04/22 05:17:55;;;;;;;35.65;20.27;;;;;;;10.27;100.00;96826.03;4963376;28;20054;-58
2022/04/22 05:20:26;;;;;;;24.75;16.15;;;;;;;10.63;100.00;96861.38;4962916;28;20525;-57
2022/04/22 05:22:54;;;;;;;27.35;15.73;;;;;;;10.60;100.00;96864.06;4964892;28;20138;-63
2022/04/22 05:25:22;;;;;;;28.67;16.48;;;;;;;10.63;100.00;96868.88;4965231;28;20054;-64
2022/04/22 05:27:49;;;;;;;36.63;18.80;;;;;;;10.75;100.00;96865.84;4964706;28;20063;-57
2022/04/22 05:33:03;;;;;;;37.13;20.83;;;;;;;10.83;100.00;96869.53;4964526;28;20086;-56
2022/04/22 05:35:30;;;;;;;26.13;16.75;;;;;;;10.90;100.00;96864.88;4964429;28;20047;-57
2022/04/22 05:37:59;;;;;;;27.80;19.70;;;;;;;11.08;100.00;96870.66;4962628;28;20061;-59
2022/04/22 05:40:28;;;;;;;27.88;17.92;;;;;;;11.03;100.00;96871.78;4970834;28;20050;-65
2022/04/22 05:42:55;;;;;;;24.58;17.15;;;;;;;10.89;100.00;96863.25;4986423;28;20054;-64
2022/04/22 05:45:23;;;;;;;18.77;12.98;;;;;;;11.13;100.00;96856.47;4987371;28;20054;-64
2022/04/22 05:47:53;;;;;;;21.27;15.02;;;;;;;11.01;100.00;96853.91;4987574;28;20085;-63
2022/04/22 05:50:21;;;;;;;22.25;13.90;;;;;;;11.05;100.00;96849.22;4971501;28;20043;-56
2022/04/22 05:52:49;;;;;;;29.42;17.42;;;;;;;11.05;100.00;96852.00;4965636;28;20058;-64
2022/04/22 05:55:17;;;;;;;35.67;22.05;;;;;;;10.93;100.00;96852.22;4966484;28;20129;-63
2022/04/22 05:57:46;;;;;;;37.30;23.05;;;;;;;10.97;100.00;96876.03;4963139;28;20058;-58
2022/04/22 06:00:15;;;;;;;27.25;18.02;;;;;;;10.62;100.00;96839.59;4966945;28;20069;-58
2022/04/22 06:02:43;;;;;;;36.60;21.15;;;;;;;10.27;100.00;96814.97;4967136;28;20500;-63
2022/04/22 06:05:12;;;;;;;63.08;31.58;;;;;;;10.85;100.00;96900.41;4967058;28;20070;-72
2022/04/22 06:07:40;;;;;;;74.28;36.42;;;;;;;9.06;100.00;96643.97;4967831;28;20054;-58
2022/04/22 06:12:54;;;;;;;38.05;22.13;;;;;;;10.02;100.00;96885.69;4967030;28;20054;-57
2022/04/22 06:15:21;;;;;;;37.50;22.55;;;;;;;10.21;100.00;96877.34;4965894;28;20058;-61
2022/04/22 06:17:48;;;;;;;34.25;20.75;;;;;;;9.62;100.00;96832.88;4966870;28;20466;-59
2022/04/22 06:20:15;;;;;;;34.13;21.25;;;;;;;10.02;100.00;96885.69;4966735;28;20059;-63
2022/04/22 06:22:42;;;;;;;34.20;20.10;;;;;;;9.05;100.00;96726.06;4966293;28;20053;-60
2022/04/22 06:25:10;;;;;;;37.85;21.35;;;;;;;10.15;100.00;96884.38;4966777;28;20097;-58
2022/04/22 06:27:39;;;;;;;27.63;17.70;;;;;;;10.06;100.00;96864.44;4965358;28;20058;-59
2022/04/22 06:30:16;;;;;;;29.25;19.38;;;;;;;10.33;100.00;96913.13;4966345;28;20047;-64
2022/04/22 06:32:46;;;;;;;35.05;20.85;;;;;;;10.32;100.00;96905.22;4965136;28;20086;-58
2022/04/22 06:35:14;;;;;;;35.20;21.13;;;;;;;10.33;100.00;96915.09;4964857;28;20058;-61
2022/04/22 06:37:44;;;;;;;34.10;21.67;;;;;;;10.34;100.00;96900.88;4966013;28;20051;-58
2022/04/22 06:45:48;;;;;;;33.92;20.23;;;;;;;9.46;100.00;96768.59;4965561;28;20055;-64
2022/04/22 06:48:21;;;;;;;32.05;19.88;;;;;;;10.50;100.00;96918.13;4966243;28;20050;-63
2022/04/22 06:51:08;;;;;;;38.65;22.60;;;;;;;10.39;100.00;96889.50;4964486;28;20058;-63
2022/04/22 06:53:36;;;;;;;42.15;25.95;;;;;;;10.74;100.00;96933.53;4965530;28;20065;-61
2022/04/22 06:56:06;;;;;;;48.92;30.15;;;;;;;10.85;100.00;96903.19;4965301;28;20053;-59
2022/04/22 06:58:37;;;;;;;83.70;47.05;;;;;;;10.67;100.00;96898.22;4964863;28;20053;-60
2022/04/22 07:01:06;;;;;;;66.00;36.50;;;;;;;10.85;100.00;96939.22;4963414;28;20437;-70
2022/04/22 07:03:54;;;;;;;46.72;28.23;;;;;;;10.18;100.00;96810.88;4962050;28;20055;-62
2022/04/22 07:06:21;;;;;;;49.50;29.55;;;;;;;10.80;100.00;96903.50;4965702;28;20054;-58
2022/04/22 07:08:49;;;;;;;37.00;23.27;;;;;;;10.70;100.00;96877.28;4965484;28;20058;-72
2022/04/22 07:11:24;;;;;;;38.50;23.83;;;;;;;10.75;100.00;96878.94;4968599;28;20673;-57
2022/04/22 07:13:53;;;;;;;44.10;28.25;;;;;;;10.78;100.00;96890.03;4966961;28;20049;-62
2022/04/22 07:16:20;;;;;;;45.53;29.63;;;;;;;10.92;100.00;96886.66;4965888;28;20054;-59
2022/04/22 07:18:47;;;;;;;52.83;30.42;;;;;;;10.94;100.00;96881.56;4965162;28;20054;-66
2022/04/22 07:21:15;;;;;;;51.17;28.80;;;;;;;10.29;100.00;96796.00;4965679;28;20057;-59
2022/04/22 07:23:42;;;;;;;41.72;24.50;;;;;;;11.03;100.00;96823.84;4964807;28;20485;-65
2022/04/22 07:26:10;;;;;;;42.78;25.95;;;;;;;10.93;100.00;96796.81;4964963;28;20097;-59
2022/04/22 07:28:38;;;;;;;36.38;21.52;;;;;;;11.11;100.00;96781.19;4965797;28;20050;-67
2022/04/22 07:31:06;;;;;;;33.30;20.67;;;;;;;10.92;100.00;96784.13;4964518;28;20050;-55
2022/04/22 07:33:33;;;;;;;28.48;17.55;;;;;;;11.22;100.00;96821.72;4947007;28;20066;-57
2022/04/22 07:36:00;;;;;;;22.40;12.32;;;;;;;11.03;100.00;96808.03;4947113;28;20070;-68
2022/04/22 07:38:28;;;;;;;16.58;10.75;;;;;;;10.88;100.00;96752.81;4963093;28;20046;-58
2022/04/22 07:40:55;;;;;;;19.85;13.20;;;;;;;11.75;100.00;96811.16;4964611;28;20143;-66
2022/04/22 07:48:57;;;;;;;16.23;11.10;;;;;;;12.17;100.00;96811.50;4961728;28;20109;-72
2022/04/22 07:51:26;;;;;;;13.77;9.55;;;;;;;12.38;100.00;96819.94;4963009;28;20058;-75
2022/04/22 07:53:57;;;;;;;14.88;10.57;;;;;;;12.73;100.00;96822.13;4962876;28;20053;-59
2022/04/22 07:56:24;;;;;;;17.67;12.45;;;;;;;12.66;100.00;96795.09;4961427;28;20046;-75
2022/04/22 07:58:51;;;;;;;12.15;8.52;;;;;;;12.95;100.00;96802.38;4962161;28;20047;-72
2022/04/22 08:01:18;;;;;;;15.60;9.52;;;;;;;12.28;100.00;96744.91;4961838;28;20066;-74
2022/04/22 08:03:45;;;;;;;11.82;8.98;;;;;;;13.10;100.00;96806.81;4961153;28;20059;-71
2022/04/22 08:06:12;;;;;;;12.60;9.82;;;;;;;13.45;99.32;96787.44;4960970;28;20105;-57
2022/04/22 08:08:40;;;;;;;14.40;11.02;;;;;;;13.67;97.41;96789.06;4960499;28;20071;-57
2022/04/22 08:11:07;;;;;;;15.35;10.95;;;;;;;13.82;93.94;96786.28;4963314;28;20066;-66
2022/04/22 08:13:35;;;;;;;15.48;11.13;;;;;;;14.07;94.40;96784.31;4962193;28;20081;-60
2022/04/22 08:16:03;;;;;;;13.32;10.20;;;;;;;14.35;89.87;96778.72;4961475;28;20394;-57
2022/04/22 08:18:30;;;;;;;12.65;10.25;;;;;;;14.38;91.65;96777.91;4963447;28;20062;-66
2022/04/22 08:21:05;;;;;;;20.02;12.93;;;;;;;14.79;87.19;96781.78;4964606;28;20047;-58
2022/04/22 08:23:31;;;;;;;37.92;19.13;;;;;;;14.97;87.59;96765.75;4963878;28;20069;-57
2022/04/22 08:25:58;;;;;;;22.05;14.48;;;;;;;15.28;84.65;96770.38;4963372;28;20065;-57
2022/04/22 08:28:25;;;;;;;19.88;14.27;;;;;;;15.63;79.62;96770.19;4964569;28;20529;-63
2022/04/22 08:30:51;;;;;;;16.20;12.30;;;;;;;15.46;81.22;96773.88;4963635;28;20162;-68
2022/04/22 08:33:18;;;;;;;18.15;12.57;;;;;;;15.72;83.28;96764.94;4962963;28;20434;-65
2022/04/22 08:35:45;;;;;;;14.48;11.00;;;;;;;15.57;80.46;96754.28;4963960;28;20490;-70
2022/04/22 08:38:11;;;;;;;12.23;9.82;;;;;;;16.04;77.90;96757.09;4964352;28;20105;-68
2022/04/22 08:40:38;;;;;;;44.13;23.17;;;;;;;15.87;78.63;96724.50;4961794;28;20050;-66
2022/04/22 08:43:08;;;;;;;10.85;9.75;;;;;;;16.18;78.67;96748.59;4966834;28;20051;-56
2022/04/22 08:45:36;;;;;;;10.32;9.07;;;;;;;16.18;75.94;96754.16;4962709;28;20621;-56
2022/04/22 08:51:01;;;;;;;9.95;8.85;;;;;;;14.64;84.33;96752.34;4964229;28;20067;-57
2022/04/22 08:53:30;;;;;;;11.27;9.50;;;;;;;13.90;86.96;96690.41;4963387;28;20310;-59
2022/04/22 08:56:02;;;;;;;12.18;9.77;;;;;;;13.51;91.25;96682.88;4964660;28;20046;-58
2022/04/22 08:58:29;;;;;;;10.35;8.13;;;;;;;13.86;87.70;96711.91;4961829;28;20489;-57
2022/04/22 09:00:57;;;;;;;11.57;8.90;;;;;;;13.48;90.76;96731.00;4962571;28;20082;-60
2022/04/22 09:03:28;;;;;;;12.52;8.60;;;;;;;13.21;93.42;96743.69;4961374;28;20051;-57
2022/04/22 09:05:59;;;;;;;13.10;10.43;;;;;;;13.70;96.32;96742.94;4962719;28;20067;-71
2022/04/22 09:08:28;;;;;;;13.45;9.15;;;;;;;13.84;90.49;96664.19;4962828;28;20509;-59
2022/04/22 09:10:57;;;;;;;13.55;9.98;;;;;;;14.49;90.43;96736.88;4962781;28;20051;-58
2022/04/22 09:13:30;;;;;;;12.35;7.80;;;;;;;14.02;90.74;96748.50;4964117;28;20058;-58
2022/04/22 09:15:58;;;;;;;13.25;8.63;;;;;;;14.48;91.19;96747.22;4968267;28;20093;-68
2022/04/22 09:18:41;;;;;;;12.88;9.38;;;;;;;14.65;91.89;96742.78;4968251;28;20600;-57
2022/04/22 09:21:18;;;;;;;15.30;8.50;;;;;;;14.25;85.53;96748.88;4968025;28;20448;-69
2022/04/22 09:23:48;;;;;;;10.10;8.02;;;;;;;14.85;87.50;96741.13;4968498;28;20066;-58
2022/04/22 09:26:23;;;;;;;11.90;7.82;;;;;;;14.48;84.32;96743.66;4967441;28;20043;-66
2022/04/22 09:28:59;;;;;;;12.50;9.68;;;;;;;14.97;87.15;96743.44;4965952;28;20070;-72
2022/04/22 09:31:28;;;;;;;17.83;11.30;;;;;;;15.26;87.41;96733.72;4964273;28;20532;-58
2022/04/22 09:33:56;;;;;;;13.82;10.23;;;;;;;14.86;85.93;96740.69;4966933;28;20160;-70
2022/04/22 09:45:06;;;;;;;11.15;9.10;;;;;;;15.64;83.02;96717.91;4967070;28;20050;-58
2022/04/22 09:47:35;;;;;;;14.65;11.02;;;;;;;15.86;82.05;96724.91;4966587;28;20133;-57
2022/04/22 09:50:10;;;;;;;13.23;10.55;;;;;;;14.67;82.46;96453.25;4966648;28;20043;-55
2022/04/22 09:52:46;;;;;;;12.82;8.70;;;;;;;15.81;77.93;96608.84;4964623;28;20418;-67
2022/04/22 09:55:16;;;;;;;10.82;8.43;;;;;;;16.06;80.87;96726.72;4966673;28;20050;-55
2022/04/22 09:57:53;;;;;;;10.75;8.50;;;;;;;16.54;80.36;96724.66;4967186;28;20051;-67
2022/04/22 10:00:25;;;;;;;8.13;7.32;;;;;;;16.07;79.97;96700.38;4966839;28;20055;-72
2022/04/22 10:02:53;;;;;;;12.95;8.60;;;;;;;16.10;80.78;96699.56;4967678;28;20074;-56
2022/04/22 10:05:23;;;;;;;10.38;8.35;;;;;;;15.99;80.88;96675.72;4967169;28;20074;-58
2022/04/22 10:07:56;;;;;;;12.45;10.50;;;;;;;16.22;84.56;96617.97;4964879;28;20130;-73
2022/04/22 10:10:39;;;;;;;7.65;6.80;;;;;;;16.25;81.67;96677.81;4950255;28;20047;-57
2022/04/22 10:13:07;;;;;;;14.35;11.07;;;;;;;16.75;81.40;96678.06;4967239;28;20050;-70
2022/04/22 10:15:37;;;;;;;11.35;9.52;;;;;;;16.37;78.94;96675.31;4966651;28;20067;-68
2022/04/22 10:18:04;;;;;;;10.50;9.40;;;;;;;15.83;81.80;96667.88;4966253;28;20129;-67
2022/04/22 10:20:32;;;;;;;17.48;11.88;;;;;;;16.47;80.22;96657.63;4967546;28;20047;-67
2022/04/22 10:22:59;;;;;;;12.98;9.35;;;;;;;16.79;80.30;96648.81;4965725;28;20054;-58
2022/04/22 10:25:30;;;;;;;13.95;10.27;;;;;;;17.13;78.02;96643.94;4966328;28;20652;-56
2022/04/22 10:27:57;;;;;;;14.23;10.27;;;;;;;17.06;76.19;96643.25;4966954;28;20054;-58
2022/04/22 10:30:24;;;;;;;9.70;8.75;;;;;;;16.39;76.88;96641.34;4967384;28;20201;-56
2022/04/22 10:32:52;;;;;;;12.88;8.65;;;;;;;16.15;77.07;96562.19;4967242;28;20066;-56
2022/04/22 10:35:23;;;;;;;11.27;8.63;;;;;;;15.99;79.07;96643.00;4966684;28;20062;-56
2022/04/22 10:37:52;;;;;;;11.02;8.60;;;;;;;15.79;81.78;96607.69;4965844;28;20106;-56
2022/04/22 10:40:21;;;;;;;12.35;9.68;;;;;;;16.33;81.72;96629.81;4967108;28;20061;-67
2022/04/22 10:42:52;;;;;;;11.07;9.18;;;;;;;16.89;76.40;96622.72;4972594;28;20058;-56
2022/04/22 10:48:25;;;;;;;11.50;8.73;;;;;;;17.32;75.96;96617.25;4986479;28;20046;-67
2022/04/22 10:51:02;;;;;;;14.07;9.00;;;;;;;17.88;72.82;96614.31;4986554;28;20456;-56
2022/04/22 10:53:34;;;;;;;12.35;8.52;;;;;;;17.28;75.02;96619.31;4986278;28;20053;-66
2022/04/22 10:56:26;;;;;;;8.95;7.95;;;;;;;17.51;73.02;96613.78;4986866;28;20072;-68
2022/04/22 10:59:20;;;;;;;22.40;11.82;;;;;;;17.86;71.54;96613.16;4986512;28;20065;-66
2022/04/22 11:01:48;;;;;;;14.65;7.57;;;;;;;17.48;71.37;96609.03;4986232;28;20089;-64
2022/04/22 11:04:20;;;;;;;8.07;7.22;;;;;;;17.10;72.26;96576.81;4986019;28;20109;-58
2022/04/22 11:06:47;;;;;;;8.95;7.10;;;;;;;17.16;72.33;96566.72;4985843;28;20448;-64
2022/04/22 11:09:25;;;;;;;8.68;6.72;;;;;;;17.83;71.67;96597.19;4984655;28;20141;-63
2022/04/22 11:11:53;;;;;;;10.70;7.65;;;;;;;17.82;70.37;96590.00;4986122;28;20066;-57
2022/04/22 11:14:23;;;;;;;8.75;6.57;;;;;;;17.58;71.72;96591.22;4986548;28;20054;-58
2022/04/22 11:16:50;;;;;;;7.82;5.97;;;;;;;17.90;69.01;96585.84;4986207;28;20058;-58
2022/04/22 11:19:17;;;;;;;9.00;6.43;;;;;;;18.28;68.51;96584.28;4985718;28;20161;-59
2022/04/22 11:21:44;;;;;;;7.68;6.10;;;;;;;18.35;66.76;96572.94;4983982;28;20054;-65
2022/04/22 11:24:18;;;;;;;6.40;5.75;;;;;;;18.23;67.81;96569.97;4985459;28;20533;-58
2022/04/22 11:26:46;;;;;;;7.07;4.40;;;;;;;18.45;63.42;96576.75;4986132;28;20106;-65
2022/04/22 11:29:14;;;;;;;8.20;5.05;;;;;;;18.56;63.35;96558.47;4984424;28;20449;-64
2022/04/22 11:31:54;;;;;;;7.22;5.82;;;;;;;18.67;61.30;96573.06;4985849;28;20054;-57
2022/04/22 11:34:38;;;;;;;5.88;4.68;;;;;;;18.28;62.43;96575.88;4986049;28;20226;-64
2022/04/22 11:37:16;;;;;;;4.57;4.07;;;;;;;18.08;61.98;96558.28;4984582;28;20055;-65
2022/04/22 11:39:46;;;;;;;5.18;4.28;;;;;;;18.17;61.64;96543.66;4983470;28;20054;-66
2022/04/22 11:42:12;;;;;;;8.63;5.40;;;;;;;18.60;61.16;96505.09;4983343;28;20420;-66
2022/04/22 11:44:39;;;;;;;5.22;3.80;;;;;;;18.72;57.93;96552.91;4965966;28;20050;-59
2022/04/22 11:47:06;;;;;;;6.93;5.30;;;;;;;19.21;57.92;96542.50;4966170;28;20380;-57
2022/04/22 11:49:33;;;;;;;7.20;4.30;;;;;;;19.30;55.40;96543.50;4965974;28;20061;-65
2022/04/22 11:52:01;;;;;;;5.50;4.80;;;;;;;20.19;48.39;96547.56;4965512;28;20058;-65
2022/04/22 11:54:29;;;;;;;6.38;4.00;;;;;;;20.81;46.47;96527.19;4964447;28;20050;-64
2022/04/22 11:56:56;;;;;;;4.75;4.18;;;;;;;21.07;45.59;96516.75;4965878;28;20059;-65
2022/04/22 11:59:23;;;;;;;8.13;5.13;;;;;;;21.34;45.07;96537.56;4965892;28;20557;-64
2022/04/22 12:10:11;;;;;;;5.88;4.60;;;;;;;21.41;47.78;96509.16;4965300;28;20050;-66
2022/04/22 12:12:49;;;;;;;6.65;4.95;;;;;;;21.50;47.87;96508.47;4965564;28;20449;-66
2022/04/22 12:15:21;;;;;;;10.70;6.53;;;;;;;21.76;47.94;96510.78;4965526;28;20057;-63
2022/04/22 12:17:48;;;;;;;6.28;5.75;;;;;;;21.31;46.89;96441.91;4965321;28;20051;-64
2022/04/22 12:20:15;;;;;;;8.80;5.72;;;;;;;21.41;46.99;96464.06;4965295;28;20057;-58
2022/04/22 12:22:42;;;;;;;8.13;5.60;;;;;;;21.46;48.12;96471.94;4963786;28;20055;-58
2022/04/22 12:25:14;;;;;;;7.25;5.32;;;;;;;21.47;48.08;96478.34;4965127;28;20061;-66
2022/04/22 12:27:42;;;;;;;6.07;5.47;;;;;;;21.69;47.99;96490.47;4965316;28;20386;-59